sensor_id;sensor_type;location;lat;lon;timestamp;P1;durP1;ratioP1;P2;durP2;ratioP2
73359;SDS011;63092;43.582;19.528;2024-01-30T00:01:52;51.40;;;24.15;;
73359;SDS011;63092;43.582;19.528;2024-01-30T00:04:17;36.67;;;19.58;;
73359;SDS011;63092;43.582;19.528;2024-01-30T00:06:44;39.92;;;20.23;;
73359;SDS011;63092;43.582;19.528;2024-01-30T00:09:10;42.42;;;22.58;;
73359;SDS011;63092;43.582;19.528;2024-01-30T00:11:36;48.55;;;24.45;;
73359;SDS011;63092;43.582;19.528;2024-01-30T00:14:03;47.50;;;25.00;;
73359;SDS011;63092;43.582;19.528;2024-01-30T00:16:29;51.78;;;27.25;;
73359;SDS011;63092;43.582;19.528;2024-01-30T00:18:55;54.30;;;27.23;;
73359;SDS011;63092;43.582;19.528;2024-01-30T00:21:21;46.78;;;24.77;;
73359;SDS011;63092;43.582;19.528;2024-01-30T00:23:47;46.50;;;24.08;;
73359;SDS011;63092;43.582;19.528;2024-01-30T00:26:14;64.30;;;29.80;;
73359;SDS011;63092;43.582;19.528;2024-01-30T00:28:40;47.85;;;24.80;;
73359;SDS011;63092;43.582;19.528;2024-01-30T00:31:06;51.42;;;27.63;;
73359;SDS011;63092;43.582;19.528;2024-01-30T00:33:32;60.72;;;30.10;;
73359;SDS011;63092;43.582;19.528;2024-01-30T00:35:58;56.72;;;27.33;;
73359;SDS011;63092;43.582;19.528;2024-01-30T00:38:24;57.13;;;25.90;;
73359;SDS011;63092;43.582;19.528;2024-01-30T00:40:50;67.47;;;28.58;;
73359;SDS011;63092;43.582;19.528;2024-01-30T00:43:15;51.10;;;24.95;;
73359;SDS011;63092;43.582;19.528;2024-01-30T00:45:43;47.50;;;21.48;;
73359;SDS011;63092;43.582;19.528;2024-01-30T00:48:09;45.60;;;22.45;;
73359;SDS011;63092;43.582;19.528;2024-01-30T00:50:35;45.70;;;22.55;;
73359;SDS011;63092;43.582;19.528;2024-01-30T00:53:00;44.60;;;22.00;;
73359;SDS011;63092;43.582;19.528;2024-01-30T00:55:26;42.33;;;21.60;;
73359;SDS011;63092;43.582;19.528;2024-01-30T00:57:52;48.35;;;21.75;;
73359;SDS011;63092;43.582;19.528;2024-01-30T01:00:18;44.78;;;22.02;;
73359;SDS011;63092;43.582;19.528;2024-01-30T01:02:45;45.20;;;21.80;;
73359;SDS011;63092;43.582;19.528;2024-01-30T01:05:11;44.17;;;22.90;;
73359;SDS011;63092;43.582;19.528;2024-01-30T01:07:37;37.85;;;19.63;;
73359;SDS011;63092;43.582;19.528;2024-01-30T01:10:03;39.03;;;17.58;;
73359;SDS011;63092;43.582;19.528;2024-01-30T01:12:29;35.60;;;18.52;;
73359;SDS011;63092;43.582;19.528;2024-01-30T01:14:55;42.90;;;19.67;;
73359;SDS011;63092;43.582;19.528;2024-01-30T01:17:20;34.95;;;16.25;;
73359;SDS011;63092;43.582;19.528;2024-01-30T01:19:46;31.15;;;15.55;;
73359;SDS011;63092;43.582;19.528;2024-01-30T01:22:12;30.17;;;14.20;;
73359;SDS011;63092;43.582;19.528;2024-01-30T01:24:37;26.20;;;14.30;;
73359;SDS011;63092;43.582;19.528;2024-01-30T01:27:04;24.10;;;13.75;;
73359;SDS011;63092;43.582;19.528;2024-01-30T01:29:31;30.73;;;14.77;;
73359;SDS011;63092;43.582;19.528;2024-01-30T01:31:57;29.20;;;15.90;;
73359;SDS011;63092;43.582;19.528;2024-01-30T01:34:23;28.40;;;14.70;;
73359;SDS011;63092;43.582;19.528;2024-01-30T01:36:49;31.67;;;15.10;;
73359;SDS011;63092;43.582;19.528;2024-01-30T01:39:16;29.23;;;15.65;;
73359;SDS011;63092;43.582;19.528;2024-01-30T01:41:42;35.70;;;17.63;;
73359;SDS011;63092;43.582;19.528;2024-01-30T01:44:08;31.48;;;15.95;;
73359;SDS011;63092;43.582;19.528;2024-01-30T01:46:34;32.08;;;17.13;;
73359;SDS011;63092;43.582;19.528;2024-01-30T01:49:04;31.67;;;16.75;;
73359;SDS011;63092;43.582;19.528;2024-01-30T01:51:31;31.38;;;17.33;;
73359;SDS011;63092;43.582;19.528;2024-01-30T01:54:00;27.27;;;15.32;;
73359;SDS011;63092;43.582;19.528;2024-01-30T01:56:28;26.10;;;13.95;;
73359;SDS011;63092;43.582;19.528;2024-01-30T01:58:55;23.75;;;13.90;;
73359;SDS011;63092;43.582;19.528;2024-01-30T02:01:32;27.25;;;14.20;;
73359;SDS011;63092;43.582;19.528;2024-01-30T02:03:58;31.65;;;15.50;;
73359;SDS011;63092;43.582;19.528;2024-01-30T02:06:24;35.17;;;17.52;;
73359;SDS011;63092;43.582;19.528;2024-01-30T02:08:50;36.75;;;18.02;;
73359;SDS011;63092;43.582;19.528;2024-01-30T02:11:16;32.22;;;16.92;;
73359;SDS011;63092;43.582;19.528;2024-01-30T02:13:42;27.33;;;15.15;;
73359;SDS011;63092;43.582;19.528;2024-01-30T02:16:08;31.60;;;14.75;;
73359;SDS011;63092;43.582;19.528;2024-01-30T02:18:33;27.58;;;14.57;;
73359;SDS011;63092;43.582;19.528;2024-01-30T02:20:59;29.13;;;15.10;;
73359;SDS011;63092;43.582;19.528;2024-01-30T02:23:29;42.40;;;17.70;;
73359;SDS011;63092;43.582;19.528;2024-01-30T02:25:58;25.95;;;14.35;;
73359;SDS011;63092;43.582;19.528;2024-01-30T02:28:23;21.00;;;12.38;;
73359;SDS011;63092;43.582;19.528;2024-01-30T02:30:49;23.08;;;12.30;;
73359;SDS011;63092;43.582;19.528;2024-01-30T02:33:15;25.67;;;13.55;;
73359;SDS011;63092;43.582;19.528;2024-01-30T02:35:41;25.60;;;13.38;;
73359;SDS011;63092;43.582;19.528;2024-01-30T02:38:06;30.42;;;14.82;;
73359;SDS011;63092;43.582;19.528;2024-01-30T02:40:32;25.70;;;14.45;;
73359;SDS011;63092;43.582;19.528;2024-01-30T02:42:59;26.83;;;14.07;;
73359;SDS011;63092;43.582;19.528;2024-01-30T02:45:25;28.33;;;14.23;;
73359;SDS011;63092;43.582;19.528;2024-01-30T02:47:51;30.52;;;14.77;;
73359;SDS011;63092;43.582;19.528;2024-01-30T02:50:17;29.85;;;14.77;;
73359;SDS011;63092;43.582;19.528;2024-01-30T02:52:43;27.85;;;14.65;;
73359;SDS011;63092;43.582;19.528;2024-01-30T02:55:11;32.88;;;16.55;;
73359;SDS011;63092;43.582;19.528;2024-01-30T02:57:38;33.47;;;16.45;;
73359;SDS011;63092;43.582;19.528;2024-01-30T03:00:04;28.90;;;15.32;;
73359;SDS011;63092;43.582;19.528;2024-01-30T03:02:31;32.95;;;16.45;;
73359;SDS011;63092;43.582;19.528;2024-01-30T03:04:58;35.03;;;16.42;;
73359;SDS011;63092;43.582;19.528;2024-01-30T03:07:24;28.98;;;15.05;;
73359;SDS011;63092;43.582;19.528;2024-01-30T03:09:50;28.55;;;14.93;;
73359;SDS011;63092;43.582;19.528;2024-01-30T03:12:16;32.72;;;14.63;;
73359;SDS011;63092;43.582;19.528;2024-01-30T03:14:42;29.25;;;14.88;;
73359;SDS011;63092;43.582;19.528;2024-01-30T03:17:08;30.80;;;16.60;;
73359;SDS011;63092;43.582;19.528;2024-01-30T03:19:33;24.30;;;12.70;;
73359;SDS011;63092;43.582;19.528;2024-01-30T03:21:59;25.92;;;14.02;;
73359;SDS011;63092;43.582;19.528;2024-01-30T03:24:25;23.95;;;13.43;;
73359;SDS011;63092;43.582;19.528;2024-01-30T03:26:51;23.75;;;12.80;;
73359;SDS011;63092;43.582;19.528;2024-01-30T03:29:17;21.80;;;13.77;;
73359;SDS011;63092;43.582;19.528;2024-01-30T03:31:42;25.40;;;15.00;;
73359;SDS011;63092;43.582;19.528;2024-01-30T03:34:08;25.73;;;13.38;;
73359;SDS011;63092;43.582;19.528;2024-01-30T03:36:34;22.15;;;12.57;;
73359;SDS011;63092;43.582;19.528;2024-01-30T03:39:00;26.42;;;13.38;;
73359;SDS011;63092;43.582;19.528;2024-01-30T03:41:26;24.98;;;12.65;;
73359;SDS011;63092;43.582;19.528;2024-01-30T03:43:52;24.63;;;12.00;;
73359;SDS011;63092;43.582;19.528;2024-01-30T03:46:17;20.83;;;11.95;;
73359;SDS011;63092;43.582;19.528;2024-01-30T03:48:44;22.25;;;11.82;;
73359;SDS011;63092;43.582;19.528;2024-01-30T03:51:11;24.75;;;12.65;;
73359;SDS011;63092;43.582;19.528;2024-01-30T03:53:40;24.63;;;11.97;;
73359;SDS011;63092;43.582;19.528;2024-01-30T03:56:06;21.75;;;11.68;;
73359;SDS011;63092;43.582;19.528;2024-01-30T03:58:33;24.20;;;12.27;;
73359;SDS011;63092;43.582;19.528;2024-01-30T04:00:58;26.63;;;13.55;;
73359;SDS011;63092;43.582;19.528;2024-01-30T04:03:24;22.75;;;12.90;;
73359;SDS011;63092;43.582;19.528;2024-01-30T04:05:51;23.95;;;12.68;;
73359;SDS011;63092;43.582;19.528;2024-01-30T04:08:17;26.38;;;13.75;;
73359;SDS011;63092;43.582;19.528;2024-01-30T04:10:43;26.90;;;14.02;;
73359;SDS011;63092;43.582;19.528;2024-01-30T04:13:08;24.85;;;13.27;;
73359;SDS011;63092;43.582;19.528;2024-01-30T04:15:34;30.33;;;15.30;;
73359;SDS011;63092;43.582;19.528;2024-01-30T04:18:00;26.20;;;13.93;;
73359;SDS011;63092;43.582;19.528;2024-01-30T04:20:26;27.20;;;12.90;;
73359;SDS011;63092;43.582;19.528;2024-01-30T04:22:51;31.23;;;15.30;;
73359;SDS011;63092;43.582;19.528;2024-01-30T04:25:17;33.75;;;17.10;;
73359;SDS011;63092;43.582;19.528;2024-01-30T04:27:43;38.00;;;19.63;;
73359;SDS011;63092;43.582;19.528;2024-01-30T04:30:09;38.30;;;19.02;;
73359;SDS011;63092;43.582;19.528;2024-01-30T04:32:35;39.55;;;18.50;;
73359;SDS011;63092;43.582;19.528;2024-01-30T04:35:02;37.65;;;18.38;;
73359;SDS011;63092;43.582;19.528;2024-01-30T04:37:28;30.05;;;15.52;;
73359;SDS011;63092;43.582;19.528;2024-01-30T04:39:54;30.55;;;14.77;;
73359;SDS011;63092;43.582;19.528;2024-01-30T04:42:20;26.88;;;13.88;;
73359;SDS011;63092;43.582;19.528;2024-01-30T04:44:46;26.85;;;14.30;;
73359;SDS011;63092;43.582;19.528;2024-01-30T04:47:11;27.65;;;13.57;;
73359;SDS011;63092;43.582;19.528;2024-01-30T04:49:40;27.67;;;14.02;;
73359;SDS011;63092;43.582;19.528;2024-01-30T04:52:06;31.42;;;14.27;;
73359;SDS011;63092;43.582;19.528;2024-01-30T04:54:32;29.42;;;14.82;;
73359;SDS011;63092;43.582;19.528;2024-01-30T04:56:59;31.77;;;15.55;;
73359;SDS011;63092;43.582;19.528;2024-01-30T04:59:25;39.30;;;18.33;;
73359;SDS011;63092;43.582;19.528;2024-01-30T05:01:51;41.05;;;20.02;;
73359;SDS011;63092;43.582;19.528;2024-01-30T05:04:17;50.30;;;23.92;;
73359;SDS011;63092;43.582;19.528;2024-01-30T05:06:42;49.28;;;22.80;;
73359;SDS011;63092;43.582;19.528;2024-01-30T05:09:08;34.58;;;17.90;;
73359;SDS011;63092;43.582;19.528;2024-01-30T05:11:40;39.47;;;21.70;;
73359;SDS011;63092;43.582;19.528;2024-01-30T05:14:06;45.63;;;21.63;;
73359;SDS011;63092;43.582;19.528;2024-01-30T05:16:33;43.97;;;21.30;;
73359;SDS011;63092;43.582;19.528;2024-01-30T05:18:59;43.90;;;21.60;;
73359;SDS011;63092;43.582;19.528;2024-01-30T05:21:26;37.40;;;18.13;;
73359;SDS011;63092;43.582;19.528;2024-01-30T05:23:51;36.67;;;18.70;;
73359;SDS011;63092;43.582;19.528;2024-01-30T05:26:17;37.88;;;18.85;;
73359;SDS011;63092;43.582;19.528;2024-01-30T05:28:43;42.00;;;19.70;;
73359;SDS011;63092;43.582;19.528;2024-01-30T05:31:13;41.03;;;18.10;;
73359;SDS011;63092;43.582;19.528;2024-01-30T05:33:38;35.63;;;17.38;;
73359;SDS011;63092;43.582;19.528;2024-01-30T05:36:05;35.53;;;16.25;;
73359;SDS011;63092;43.582;19.528;2024-01-30T05:38:31;33.75;;;17.50;;
73359;SDS011;63092;43.582;19.528;2024-01-30T05:40:57;30.17;;;15.73;;
73359;SDS011;63092;43.582;19.528;2024-01-30T05:43:25;31.20;;;16.05;;
73359;SDS011;63092;43.582;19.528;2024-01-30T05:45:51;36.17;;;15.82;;
73359;SDS011;63092;43.582;19.528;2024-01-30T05:48:18;33.47;;;16.38;;
73359;SDS011;63092;43.582;19.528;2024-01-30T05:50:43;28.45;;;13.55;;
73359;SDS011;63092;43.582;19.528;2024-01-30T05:53:10;33.05;;;15.82;;
73359;SDS011;63092;43.582;19.528;2024-01-30T05:55:36;30.55;;;14.10;;
73359;SDS011;63092;43.582;19.528;2024-01-30T05:58:01;31.52;;;14.85;;
73359;SDS011;63092;43.582;19.528;2024-01-30T06:00:27;28.83;;;14.45;;
73359;SDS011;63092;43.582;19.528;2024-01-30T06:02:53;28.55;;;14.48;;
73359;SDS011;63092;43.582;19.528;2024-01-30T06:05:19;27.25;;;14.07;;
73359;SDS011;63092;43.582;19.528;2024-01-30T06:07:45;40.53;;;16.65;;
73359;SDS011;63092;43.582;19.528;2024-01-30T06:10:10;36.35;;;16.80;;
73359;SDS011;63092;43.582;19.528;2024-01-30T06:12:36;53.92;;;21.13;;
73359;SDS011;63092;43.582;19.528;2024-01-30T06:15:03;78.13;;;33.45;;
73359;SDS011;63092;43.582;19.528;2024-01-30T06:17:29;35.58;;;17.27;;
73359;SDS011;63092;43.582;19.528;2024-01-30T06:19:54;43.13;;;17.77;;
73359;SDS011;63092;43.582;19.528;2024-01-30T06:22:20;43.65;;;19.65;;
73359;SDS011;63092;43.582;19.528;2024-01-30T06:24:46;41.75;;;20.45;;
73359;SDS011;63092;43.582;19.528;2024-01-30T06:27:13;48.92;;;21.55;;
73359;SDS011;63092;43.582;19.528;2024-01-30T06:29:40;43.58;;;22.23;;
73359;SDS011;63092;43.582;19.528;2024-01-30T06:32:07;41.13;;;20.80;;
73359;SDS011;63092;43.582;19.528;2024-01-30T06:34:34;52.47;;;24.42;;
73359;SDS011;63092;43.582;19.528;2024-01-30T06:37:00;54.50;;;24.92;;
73359;SDS011;63092;43.582;19.528;2024-01-30T06:39:26;64.28;;;28.05;;
73359;SDS011;63092;43.582;19.528;2024-01-30T06:41:52;50.35;;;22.38;;
73359;SDS011;63092;43.582;19.528;2024-01-30T06:44:18;51.35;;;24.90;;
73359;SDS011;63092;43.582;19.528;2024-01-30T06:46:43;44.20;;;19.95;;
73359;SDS011;63092;43.582;19.528;2024-01-30T06:49:09;37.63;;;18.33;;
73359;SDS011;63092;43.582;19.528;2024-01-30T06:51:35;43.63;;;20.33;;
73359;SDS011;63092;43.582;19.528;2024-01-30T06:54:01;42.85;;;20.92;;
73359;SDS011;63092;43.582;19.528;2024-01-30T06:56:26;48.95;;;22.33;;
73359;SDS011;63092;43.582;19.528;2024-01-30T06:58:53;50.53;;;24.98;;
73359;SDS011;63092;43.582;19.528;2024-01-30T07:01:18;52.10;;;22.95;;
73359;SDS011;63092;43.582;19.528;2024-01-30T07:03:44;48.05;;;21.83;;
73359;SDS011;63092;43.582;19.528;2024-01-30T07:06:10;55.13;;;23.63;;
73359;SDS011;63092;43.582;19.528;2024-01-30T07:08:36;47.65;;;21.08;;
73359;SDS011;63092;43.582;19.528;2024-01-30T07:11:05;54.75;;;19.90;;
73359;SDS011;63092;43.582;19.528;2024-01-30T07:13:31;44.97;;;20.35;;
73359;SDS011;63092;43.582;19.528;2024-01-30T07:15:57;42.60;;;21.65;;
73359;SDS011;63092;43.582;19.528;2024-01-30T07:18:23;51.58;;;25.00;;
73359;SDS011;63092;43.582;19.528;2024-01-30T07:20:49;50.65;;;26.48;;
73359;SDS011;63092;43.582;19.528;2024-01-30T07:23:15;45.10;;;21.38;;
73359;SDS011;63092;43.582;19.528;2024-01-30T07:25:46;42.03;;;19.73;;
73359;SDS011;63092;43.582;19.528;2024-01-30T07:28:15;53.17;;;24.33;;
73359;SDS011;63092;43.582;19.528;2024-01-30T07:30:44;51.22;;;22.15;;
73359;SDS011;63092;43.582;19.528;2024-01-30T07:33:10;36.25;;;16.70;;
73359;SDS011;63092;43.582;19.528;2024-01-30T07:35:36;53.30;;;22.90;;
73359;SDS011;63092;43.582;19.528;2024-01-30T07:38:02;46.80;;;21.42;;
73359;SDS011;63092;43.582;19.528;2024-01-30T07:40:27;50.88;;;23.98;;
73359;SDS011;63092;43.582;19.528;2024-01-30T07:42:53;50.63;;;26.13;;
73359;SDS011;63092;43.582;19.528;2024-01-30T07:45:19;56.10;;;26.45;;
73359;SDS011;63092;43.582;19.528;2024-01-30T07:47:48;76.65;;;32.38;;
73359;SDS011;63092;43.582;19.528;2024-01-30T07:50:14;61.13;;;28.30;;
73359;SDS011;63092;43.582;19.528;2024-01-30T07:52:40;52.53;;;23.85;;
73359;SDS011;63092;43.582;19.528;2024-01-30T07:55:06;52.72;;;24.67;;
73359;SDS011;63092;43.582;19.528;2024-01-30T07:57:33;57.13;;;27.13;;
73359;SDS011;63092;43.582;19.528;2024-01-30T07:59:59;57.55;;;27.60;;
73359;SDS011;63092;43.582;19.528;2024-01-30T08:02:28;72.50;;;33.08;;
73359;SDS011;63092;43.582;19.528;2024-01-30T08:04:54;65.63;;;31.20;;
73359;SDS011;63092;43.582;19.528;2024-01-30T08:07:19;71.82;;;34.05;;
73359;SDS011;63092;43.582;19.528;2024-01-30T08:09:47;77.70;;;36.20;;
73359;SDS011;63092;43.582;19.528;2024-01-30T08:12:13;66.88;;;31.98;;
73359;SDS011;63092;43.582;19.528;2024-01-30T08:14:38;65.15;;;31.02;;
73359;SDS011;63092;43.582;19.528;2024-01-30T08:17:06;75.38;;;33.00;;
73359;SDS011;63092;43.582;19.528;2024-01-30T08:19:32;63.72;;;28.88;;
73359;SDS011;63092;43.582;19.528;2024-01-30T08:21:58;48.75;;;24.92;;
73359;SDS011;63092;43.582;19.528;2024-01-30T08:24:24;53.83;;;25.48;;
73359;SDS011;63092;43.582;19.528;2024-01-30T08:26:50;51.78;;;25.48;;
73359;SDS011;63092;43.582;19.528;2024-01-30T08:29:15;52.55;;;24.92;;
73359;SDS011;63092;43.582;19.528;2024-01-30T08:31:41;53.50;;;23.98;;
73359;SDS011;63092;43.582;19.528;2024-01-30T08:34:07;50.45;;;23.55;;
73359;SDS011;63092;43.582;19.528;2024-01-30T08:36:33;55.03;;;26.30;;
73359;SDS011;63092;43.582;19.528;2024-01-30T08:38:58;42.92;;;21.23;;
73359;SDS011;63092;43.582;19.528;2024-01-30T08:41:24;48.47;;;24.92;;
73359;SDS011;63092;43.582;19.528;2024-01-30T08:43:50;62.33;;;29.63;;
73359;SDS011;63092;43.582;19.528;2024-01-30T08:46:17;56.25;;;26.65;;
73359;SDS011;63092;43.582;19.528;2024-01-30T08:48:43;48.00;;;24.17;;
73359;SDS011;63092;43.582;19.528;2024-01-30T08:51:10;49.83;;;22.80;;
73359;SDS011;63092;43.582;19.528;2024-01-30T08:53:36;40.85;;;20.67;;
73359;SDS011;63092;43.582;19.528;2024-01-30T08:56:02;39.53;;;21.85;;
73359;SDS011;63092;43.582;19.528;2024-01-30T08:58:28;39.47;;;21.98;;
73359;SDS011;63092;43.582;19.528;2024-01-30T09:00:54;39.83;;;23.25;;
73359;SDS011;63092;43.582;19.528;2024-01-30T09:03:20;38.63;;;20.17;;
73359;SDS011;63092;43.582;19.528;2024-01-30T09:05:45;39.85;;;20.77;;
73359;SDS011;63092;43.582;19.528;2024-01-30T09:08:11;43.75;;;23.17;;
73359;SDS011;63092;43.582;19.528;2024-01-30T09:10:37;45.22;;;23.40;;
73359;SDS011;63092;43.582;19.528;2024-01-30T09:13:02;55.03;;;23.98;;
73359;SDS011;63092;43.582;19.528;2024-01-30T09:15:28;35.30;;;16.67;;
73359;SDS011;63092;43.582;19.528;2024-01-30T09:17:54;25.55;;;14.48;;
73359;SDS011;63092;43.582;19.528;2024-01-30T09:20:20;40.60;;;19.55;;
73359;SDS011;63092;43.582;19.528;2024-01-30T09:22:47;52.92;;;26.95;;
73359;SDS011;63092;43.582;19.528;2024-01-30T09:25:13;33.00;;;18.67;;
73359;SDS011;63092;43.582;19.528;2024-01-30T09:27:39;35.83;;;17.40;;
73359;SDS011;63092;43.582;19.528;2024-01-30T09:30:05;29.38;;;15.25;;
73359;SDS011;63092;43.582;19.528;2024-01-30T09:32:33;35.25;;;17.55;;
73359;SDS011;63092;43.582;19.528;2024-01-30T09:34:59;24.85;;;12.98;;
73359;SDS011;63092;43.582;19.528;2024-01-30T09:37:24;25.60;;;14.52;;
73359;SDS011;63092;43.582;19.528;2024-01-30T09:39:50;28.45;;;12.60;;
73359;SDS011;63092;43.582;19.528;2024-01-30T09:44:50;28.73;;;15.55;;
73359;SDS011;63092;43.582;19.528;2024-01-30T09:47:19;30.85;;;15.07;;
73359;SDS011;63092;43.582;19.528;2024-01-30T09:49:45;18.60;;;9.90;;
73359;SDS011;63092;43.582;19.528;2024-01-30T09:52:11;20.63;;;10.60;;
73359;SDS011;63092;43.582;19.528;2024-01-30T09:54:38;34.53;;;17.20;;
73359;SDS011;63092;43.582;19.528;2024-01-30T09:57:04;24.38;;;14.18;;
73359;SDS011;63092;43.582;19.528;2024-01-30T09:59:30;32.08;;;18.10;;
73359;SDS011;63092;43.582;19.528;2024-01-30T10:01:57;25.73;;;14.50;;
73359;SDS011;63092;43.582;19.528;2024-01-30T10:04:23;22.13;;;10.90;;
73359;SDS011;63092;43.582;19.528;2024-01-30T10:06:48;18.10;;;10.80;;
73359;SDS011;63092;43.582;19.528;2024-01-30T10:09:15;24.55;;;12.93;;
73359;SDS011;63092;43.582;19.528;2024-01-30T10:11:41;24.25;;;14.02;;
73359;SDS011;63092;43.582;19.528;2024-01-30T10:14:07;29.80;;;16.02;;
73359;SDS011;63092;43.582;19.528;2024-01-30T10:16:34;23.00;;;13.05;;
73359;SDS011;63092;43.582;19.528;2024-01-30T10:19:00;26.52;;;14.45;;
73359;SDS011;63092;43.582;19.528;2024-01-30T10:21:26;21.40;;;11.65;;
73359;SDS011;63092;43.582;19.528;2024-01-30T10:23:51;23.17;;;12.77;;
73359;SDS011;63092;43.582;19.528;2024-01-30T10:26:17;24.00;;;12.73;;
73359;SDS011;63092;43.582;19.528;2024-01-30T10:28:43;20.60;;;12.13;;
73359;SDS011;63092;43.582;19.528;2024-01-30T10:31:09;29.67;;;17.13;;
73359;SDS011;63092;43.582;19.528;2024-01-30T10:33:35;29.50;;;15.95;;
73359;SDS011;63092;43.582;19.528;2024-01-30T10:36:02;25.90;;;16.17;;
73359;SDS011;63092;43.582;19.528;2024-01-30T10:38:29;27.15;;;14.88;;
73359;SDS011;63092;43.582;19.528;2024-01-30T10:40:59;24.05;;;13.02;;
73359;SDS011;63092;43.582;19.528;2024-01-30T10:43:32;18.85;;;10.90;;
73359;SDS011;63092;43.582;19.528;2024-01-30T10:46:10;26.73;;;14.05;;
73359;SDS011;63092;43.582;19.528;2024-01-30T10:48:43;23.23;;;13.85;;
73359;SDS011;63092;43.582;19.528;2024-01-30T10:51:12;17.27;;;10.45;;
73359;SDS011;63092;43.582;19.528;2024-01-30T10:53:39;16.77;;;10.25;;
73359;SDS011;63092;43.582;19.528;2024-01-30T10:56:06;23.13;;;10.25;;
73359;SDS011;63092;43.582;19.528;2024-01-30T10:58:33;18.10;;;10.13;;
73359;SDS011;63092;43.582;19.528;2024-01-30T11:00:59;21.73;;;12.07;;
73359;SDS011;63092;43.582;19.528;2024-01-30T11:03:25;12.30;;;7.10;;
73359;SDS011;63092;43.582;19.528;2024-01-30T11:05:51;18.83;;;10.07;;
73359;SDS011;63092;43.582;19.528;2024-01-30T11:08:24;34.58;;;16.30;;
73359;SDS011;63092;43.582;19.528;2024-01-30T11:10:54;26.95;;;11.82;;
73359;SDS011;63092;43.582;19.528;2024-01-30T11:13:22;17.50;;;8.93;;
73359;SDS011;63092;43.582;19.528;2024-01-30T11:15:52;14.23;;;8.70;;
73359;SDS011;63092;43.582;19.528;2024-01-30T11:18:24;20.40;;;10.57;;
73359;SDS011;63092;43.582;19.528;2024-01-30T11:20:51;18.42;;;10.23;;
73359;SDS011;63092;43.582;19.528;2024-01-30T11:23:17;15.18;;;8.75;;
73359;SDS011;63092;43.582;19.528;2024-01-30T11:25:46;24.20;;;10.63;;
73359;SDS011;63092;43.582;19.528;2024-01-30T11:28:13;19.05;;;10.13;;
73359;SDS011;63092;43.582;19.528;2024-01-30T11:30:43;11.55;;;7.30;;
73359;SDS011;63092;43.582;19.528;2024-01-30T11:33:09;16.38;;;8.48;;
73359;SDS011;63092;43.582;19.528;2024-01-30T11:35:39;14.38;;;8.00;;
73359;SDS011;63092;43.582;19.528;2024-01-30T11:38:06;28.83;;;14.27;;
73359;SDS011;63092;43.582;19.528;2024-01-30T11:40:33;20.50;;;11.88;;
73359;SDS011;63092;43.582;19.528;2024-01-30T11:43:00;17.73;;;10.48;;
73359;SDS011;63092;43.582;19.528;2024-01-30T11:45:28;17.33;;;9.98;;
73359;SDS011;63092;43.582;19.528;2024-01-30T11:47:54;13.73;;;8.77;;
73359;SDS011;63092;43.582;19.528;2024-01-30T11:50:20;15.38;;;10.13;;
73359;SDS011;63092;43.582;19.528;2024-01-30T11:52:47;18.17;;;10.60;;
73359;SDS011;63092;43.582;19.528;2024-01-30T11:55:13;30.40;;;19.83;;
73359;SDS011;63092;43.582;19.528;2024-01-30T11:57:43;23.73;;;11.70;;
73359;SDS011;63092;43.582;19.528;2024-01-30T12:00:17;13.80;;;8.50;;
73359;SDS011;63092;43.582;19.528;2024-01-30T12:02:44;21.00;;;11.90;;
73359;SDS011;63092;43.582;19.528;2024-01-30T12:05:14;13.85;;;8.23;;
73359;SDS011;63092;43.582;19.528;2024-01-30T12:07:39;20.92;;;10.52;;
73359;SDS011;63092;43.582;19.528;2024-01-30T12:10:09;19.75;;;10.15;;
73359;SDS011;63092;43.582;19.528;2024-01-30T12:12:34;20.85;;;12.70;;
73359;SDS011;63092;43.582;19.528;2024-01-30T12:15:00;18.80;;;11.30;;
73359;SDS011;63092;43.582;19.528;2024-01-30T12:17:30;9.32;;;5.78;;
73359;SDS011;63092;43.582;19.528;2024-01-30T12:20:06;9.68;;;6.15;;
73359;SDS011;63092;43.582;19.528;2024-01-30T12:22:46;9.10;;;5.10;;
73359;SDS011;63092;43.582;19.528;2024-01-30T12:25:13;15.65;;;8.82;;
73359;SDS011;63092;43.582;19.528;2024-01-30T12:27:43;9.48;;;5.78;;
73359;SDS011;63092;43.582;19.528;2024-01-30T12:30:16;12.25;;;7.85;;
73359;SDS011;63092;43.582;19.528;2024-01-30T12:32:46;12.50;;;7.28;;
73359;SDS011;63092;43.582;19.528;2024-01-30T12:35:13;17.13;;;9.45;;
73359;SDS011;63092;43.582;19.528;2024-01-30T12:37:40;14.95;;;9.13;;
73359;SDS011;63092;43.582;19.528;2024-01-30T12:40:08;13.02;;;7.22;;
73359;SDS011;63092;43.582;19.528;2024-01-30T12:42:34;11.18;;;7.30;;
73359;SDS011;63092;43.582;19.528;2024-01-30T12:45:02;11.57;;;6.28;;
73359;SDS011;63092;43.582;19.528;2024-01-30T12:47:29;13.90;;;8.20;;
73359;SDS011;63092;43.582;19.528;2024-01-30T12:49:55;11.90;;;7.70;;
73359;SDS011;63092;43.582;19.528;2024-01-30T12:52:22;15.57;;;9.00;;
73359;SDS011;63092;43.582;19.528;2024-01-30T12:54:48;23.27;;;12.15;;
73359;SDS011;63092;43.582;19.528;2024-01-30T12:57:14;19.88;;;11.77;;
73359;SDS011;63092;43.582;19.528;2024-01-30T12:59:41;18.48;;;9.68;;
73359;SDS011;63092;43.582;19.528;2024-01-30T13:02:07;22.42;;;11.65;;
73359;SDS011;63092;43.582;19.528;2024-01-30T13:04:33;23.13;;;12.60;;
73359;SDS011;63092;43.582;19.528;2024-01-30T13:06:59;19.52;;;12.25;;
73359;SDS011;63092;43.582;19.528;2024-01-30T13:09:25;19.88;;;11.85;;
73359;SDS011;63092;43.582;19.528;2024-01-30T13:11:52;22.15;;;12.88;;
73359;SDS011;63092;43.582;19.528;2024-01-30T13:14:18;26.80;;;13.73;;
73359;SDS011;63092;43.582;19.528;2024-01-30T13:16:44;31.10;;;14.93;;
73359;SDS011;63092;43.582;19.528;2024-01-30T13:19:10;28.63;;;14.18;;
73359;SDS011;63092;43.582;19.528;2024-01-30T13:21:36;31.42;;;16.50;;
73359;SDS011;63092;43.582;19.528;2024-01-30T13:24:02;26.35;;;13.02;;
73359;SDS011;63092;43.582;19.528;2024-01-30T13:26:28;27.95;;;14.05;;
73359;SDS011;63092;43.582;19.528;2024-01-30T13:28:56;28.77;;;12.70;;
73359;SDS011;63092;43.582;19.528;2024-01-30T13:31:21;31.45;;;14.32;;
73359;SDS011;63092;43.582;19.528;2024-01-30T13:33:47;25.85;;;12.63;;
73359;SDS011;63092;43.582;19.528;2024-01-30T13:36:14;34.97;;;18.88;;
73359;SDS011;63092;43.582;19.528;2024-01-30T13:38:40;44.83;;;21.98;;
73359;SDS011;63092;43.582;19.528;2024-01-30T13:41:05;27.20;;;14.55;;
73359;SDS011;63092;43.582;19.528;2024-01-30T13:43:31;25.88;;;14.85;;
73359;SDS011;63092;43.582;19.528;2024-01-30T13:45:57;32.88;;;19.98;;
73359;SDS011;63092;43.582;19.528;2024-01-30T13:48:24;30.60;;;17.35;;
73359;SDS011;63092;43.582;19.528;2024-01-30T13:50:49;34.83;;;18.67;;
73359;SDS011;63092;43.582;19.528;2024-01-30T13:53:15;50.17;;;24.75;;
73359;SDS011;63092;43.582;19.528;2024-01-30T13:55:41;70.50;;;30.05;;
73359;SDS011;63092;43.582;19.528;2024-01-30T13:58:07;56.05;;;28.25;;
73359;SDS011;63092;43.582;19.528;2024-01-30T14:00:33;29.80;;;17.58;;
73359;SDS011;63092;43.582;19.528;2024-01-30T14:02:59;29.65;;;16.63;;
73359;SDS011;63092;43.582;19.528;2024-01-30T14:05:25;30.83;;;17.02;;
73359;SDS011;63092;43.582;19.528;2024-01-30T14:07:53;29.25;;;15.85;;
73359;SDS011;63092;43.582;19.528;2024-01-30T14:10:18;36.88;;;21.38;;